createdAt,value
2018-06-03T00:01:03.190Z,22.20
2018-06-03T00:03:32.178Z,18.93
2018-06-03T00:06:01.329Z,18.00
2018-06-03T00:08:30.852Z,19.03
2018-06-03T00:11:00.267Z,14.10
2018-06-03T00:13:29.872Z,18.77
2018-06-03T00:15:59.276Z,19.40
2018-06-03T00:18:29.474Z,20.53
2018-06-03T00:21:10.252Z,22.37
2018-06-03T00:23:40.186Z,21.60
2018-06-03T00:26:09.647Z,21.00
2018-06-03T00:28:39.030Z,23.57
2018-06-03T00:31:08.706Z,25.17
2018-06-03T00:33:38.308Z,25.33
2018-06-03T00:36:18.958Z,23.37
2018-06-03T00:38:47.964Z,24.47
2018-06-03T00:41:17.464Z,25.33
2018-06-03T00:43:47.008Z,23.53
2018-06-03T00:46:16.541Z,21.20
2018-06-03T00:48:45.908Z,21.90
2018-06-03T00:51:15.392Z,25.00
2018-06-03T00:53:47.109Z,23.13
2018-06-03T00:57:19.666Z,22.90
2018-06-03T00:59:49.293Z,19.67
2018-06-03T01:02:18.522Z,20.57
2018-06-03T01:04:47.728Z,20.60
2018-06-03T01:07:19.579Z,17.13
2018-06-03T01:09:49.593Z,18.57
2018-06-03T01:12:19.167Z,19.67
2018-06-03T01:14:48.610Z,20.87
2018-06-03T01:17:18.441Z,21.23
2018-06-03T01:19:47.808Z,22.70
2018-06-03T01:22:17.238Z,22.63
2018-06-03T01:24:46.359Z,26.30
2018-06-03T01:27:16.008Z,24.20
2018-06-03T01:29:45.595Z,24.53
2018-06-03T01:32:16.119Z,25.57
2018-06-03T01:34:46.220Z,26.17
2018-06-03T01:37:15.812Z,25.90
2018-06-03T01:39:45.245Z,22.77
2018-06-03T01:42:14.517Z,21.27
2018-06-03T01:44:44.017Z,17.87
2018-06-03T01:47:13.482Z,18.67
2018-06-03T01:49:43.084Z,17.67
2018-06-03T01:52:13.255Z,18.13
2018-06-03T01:54:42.758Z,27.80
2018-06-03T01:57:12.308Z,26.93
2018-06-03T01:59:41.986Z,21.57
2018-06-03T02:02:13.375Z,16.97
2018-06-03T02:07:16.999Z,22.40
2018-06-03T02:09:46.558Z,24.10
2018-06-03T02:12:16.352Z,20.23
2018-06-03T02:14:45.783Z,20.33
2018-06-03T02:17:15.420Z,23.33
2018-06-03T02:19:46.592Z,25.37
2018-06-03T02:22:16.019Z,33.07
2018-06-03T02:24:46.500Z,32.03
2018-06-03T02:27:16.441Z,35.07
2018-06-03T02:29:46.495Z,38.43
2018-06-03T02:32:17.424Z,41.73
2018-06-03T02:34:46.979Z,39.33
2018-06-03T02:37:16.298Z,39.20
2018-06-03T02:39:47.145Z,31.93
2018-06-03T02:42:16.657Z,35.47
2018-06-03T02:44:45.999Z,32.97
2018-06-03T02:47:15.539Z,35.93
2018-06-03T02:49:45.128Z,36.10
2018-06-03T02:52:14.113Z,40.33
2018-06-03T02:54:44.438Z,36.20
2018-06-03T02:57:14.010Z,35.37
2018-06-03T02:59:43.773Z,34.47
2018-06-03T03:02:13.205Z,31.90
2018-06-03T03:04:42.672Z,28.93
2018-06-03T03:07:12.376Z,32.00
2018-06-03T03:09:42.499Z,37.97
2018-06-03T03:12:12.072Z,35.83
2018-06-03T03:14:41.701Z,35.67
2018-06-03T03:17:11.311Z,33.13
2018-06-03T03:19:40.740Z,30.67
2018-06-03T03:22:10.223Z,34.70
2018-06-03T03:24:39.611Z,38.37
2018-06-03T03:27:09.534Z,36.93
2018-06-03T03:29:40.015Z,33.93
2018-06-03T03:32:09.722Z,34.57
2018-06-03T03:34:39.283Z,33.97
2018-06-03T03:37:08.960Z,33.47
2018-06-03T03:39:38.761Z,35.27
2018-06-03T03:42:08.516Z,36.90
2018-06-03T03:44:38.249Z,40.00
2018-06-03T03:47:08.008Z,37.27
2018-06-03T03:49:37.958Z,34.03
2018-06-03T03:52:07.230Z,32.17
2018-06-03T03:54:37.045Z,31.63
2018-06-03T03:57:06.444Z,31.93
2018-06-03T03:59:36.395Z,34.30
2018-06-03T04:02:06.306Z,36.17
2018-06-03T04:04:35.717Z,33.73
2018-06-03T04:07:05.955Z,37.43
2018-06-03T04:09:35.727Z,42.33
2018-06-03T04:12:05.205Z,40.27
2018-06-03T04:14:35.515Z,40.90
2018-06-03T04:17:05.419Z,40.83
2018-06-03T04:19:37.085Z,40.37
2018-06-03T04:22:06.698Z,36.67
2018-06-03T04:24:36.318Z,38.83
2018-06-03T04:27:05.657Z,39.53
2018-06-03T04:29:35.659Z,42.57
2018-06-03T04:32:05.827Z,41.30
2018-06-03T04:34:36.013Z,40.07
2018-06-03T04:37:05.801Z,37.83
2018-06-03T04:39:37.123Z,37.80
2018-06-03T04:42:06.609Z,38.53
2018-06-03T04:44:36.035Z,40.97
2018-06-03T04:47:05.924Z,41.20
2018-06-03T04:49:35.511Z,42.00
2018-06-03T04:52:05.255Z,40.93
2018-06-03T04:54:35.387Z,39.63
2018-06-03T05:00:06.401Z,36.83
2018-06-03T05:02:35.971Z,36.95
2018-06-03T05:05:05.741Z,33.97
2018-06-03T05:07:35.771Z,32.37
2018-06-03T05:10:06.181Z,31.17
2018-06-03T05:12:35.989Z,29.50
2018-06-03T05:15:05.840Z,27.87
2018-06-03T05:17:36.457Z,26.97
2018-06-03T05:20:06.912Z,26.13
2018-06-03T05:22:36.554Z,25.00
2018-06-03T05:25:06.344Z,22.80
2018-06-03T05:27:37.162Z,23.13
2018-06-03T05:30:08.654Z,22.17
2018-06-03T05:32:40.074Z,20.63
2018-06-03T05:35:11.980Z,19.53
2018-06-03T05:37:42.442Z,18.27
2018-06-03T05:40:12.896Z,18.03
2018-06-03T05:42:44.539Z,18.03
2018-06-03T05:45:14.088Z,16.83
2018-06-03T05:47:45.052Z,17.90
2018-06-03T05:53:18.996Z,16.20
2018-06-03T05:55:51.016Z,15.57
2018-06-03T05:58:21.194Z,16.50
2018-06-03T06:00:50.989Z,14.80
2018-06-03T06:03:20.652Z,15.60
2018-06-03T06:05:50.456Z,15.57
2018-06-03T06:08:20.156Z,15.60
2018-06-03T06:10:49.879Z,16.13
2018-06-03T06:13:19.545Z,15.13
2018-06-03T06:15:49.251Z,14.03
2018-06-03T06:18:20.059Z,14.00
2018-06-03T06:20:49.702Z,14.27
2018-06-03T06:23:19.301Z,13.60
2018-06-03T06:25:48.867Z,12.13
2018-06-03T06:28:19.301Z,12.80
2018-06-03T06:30:49.017Z,12.07
2018-06-03T06:33:18.610Z,11.67
2018-06-03T06:35:48.469Z,11.03
2018-06-03T06:38:18.360Z,11.40
2018-06-03T06:40:48.940Z,11.80
2018-06-03T06:43:19.328Z,11.37
2018-06-03T06:45:50.439Z,11.60
2018-06-03T06:48:20.146Z,10.93
2018-06-03T06:50:49.969Z,11.50
2018-06-03T06:53:19.419Z,11.60
2018-06-03T06:55:48.724Z,11.50
2018-06-03T06:58:18.239Z,10.67
2018-06-03T07:00:48.486Z,10.23
2018-06-03T07:03:19.269Z,10.70
2018-06-03T07:05:49.796Z,9.63
2018-06-03T07:08:19.845Z,10.73
2018-06-03T07:10:49.304Z,10.97
2018-06-03T07:13:20.198Z,11.43
2018-06-03T07:15:50.856Z,10.73
2018-06-03T07:18:20.314Z,11.53
2018-06-03T07:20:49.915Z,10.77
2018-06-03T07:23:21.833Z,9.63
2018-06-03T07:25:52.046Z,9.83
2018-06-03T07:28:22.381Z,10.10
2018-06-03T07:30:51.894Z,10.67
2018-06-03T07:33:22.095Z,11.13
2018-06-03T07:35:51.548Z,10.80
2018-06-03T07:38:21.393Z,10.57
2018-06-03T07:40:51.631Z,10.07
2018-06-03T07:43:21.555Z,10.13
2018-06-03T07:45:51.013Z,11.30
2018-06-03T07:48:20.390Z,10.77
2018-06-03T07:50:50.144Z,10.93
2018-06-03T07:53:19.568Z,10.87
2018-06-03T07:55:49.276Z,11.20
2018-06-03T07:58:19.233Z,11.37
2018-06-03T08:00:48.668Z,10.73
2018-06-03T08:03:18.814Z,11.00
2018-06-03T08:05:48.192Z,11.40
2018-06-03T08:08:17.711Z,10.57
2018-06-03T08:10:47.309Z,11.10
2018-06-03T08:13:17.066Z,11.03
2018-06-03T08:15:46.737Z,11.23
2018-06-03T08:18:16.868Z,10.60
2018-06-03T08:20:46.309Z,11.07
2018-06-03T08:23:16.419Z,11.73
2018-06-03T08:25:46.228Z,11.70
2018-06-03T08:28:15.776Z,10.80
2018-06-03T08:30:45.776Z,10.83
2018-06-03T08:33:16.345Z,11.60
2018-06-03T08:35:46.783Z,11.20
2018-06-03T08:38:17.111Z,11.37
2018-06-03T08:40:47.751Z,10.47
2018-06-03T08:43:17.687Z,10.90
2018-06-03T08:45:47.816Z,9.83
2018-06-03T08:48:17.494Z,11.53
2018-06-03T08:50:48.340Z,10.87
2018-06-03T08:53:18.214Z,11.70
2018-06-03T08:55:47.686Z,11.63
2018-06-03T08:58:17.453Z,11.63
2018-06-03T09:00:47.487Z,10.60
2018-06-03T09:03:17.487Z,11.20
2018-06-03T09:05:47.403Z,9.47
2018-06-03T09:08:17.259Z,9.57
2018-06-03T09:10:48.730Z,9.57
2018-06-03T09:13:18.403Z,10.27
2018-06-03T09:15:48.144Z,10.40
2018-06-03T09:18:17.829Z,9.23
2018-06-03T09:20:47.535Z,9.60
2018-06-03T09:23:17.975Z,8.53
2018-06-03T09:25:49.109Z,10.33
2018-06-03T09:28:18.975Z,9.57
2018-06-03T09:30:52.882Z,10.33
2018-06-03T09:33:23.417Z,9.37
2018-06-03T09:35:53.545Z,10.77
2018-06-03T09:38:22.641Z,9.27
2018-06-03T09:40:52.535Z,9.53
2018-06-03T09:43:22.769Z,10.47
2018-06-03T09:45:52.767Z,11.47
2018-06-03T09:48:23.078Z,9.57
2018-06-03T09:50:53.257Z,9.97
2018-06-03T09:53:23.092Z,10.37
2018-06-03T09:56:04.651Z,10.10
2018-06-03T09:58:48.798Z,9.90
2018-06-03T10:01:20.663Z,8.90
2018-06-03T10:03:50.473Z,10.60
2018-06-03T10:06:20.210Z,8.70
2018-06-03T10:08:50.097Z,9.93
2018-06-03T10:11:19.786Z,9.00
2018-06-03T10:13:49.315Z,8.90
2018-06-03T10:16:19.589Z,10.30
2018-06-03T10:18:49.047Z,10.57
2018-06-03T10:21:19.331Z,10.50
2018-06-03T10:23:49.409Z,11.00
2018-06-03T10:26:18.910Z,11.03
2018-06-03T10:28:48.479Z,10.70
2018-06-03T10:31:27.669Z,11.50
2018-06-03T10:33:57.316Z,10.97
2018-06-03T10:36:28.243Z,11.23
2018-06-03T10:38:57.966Z,10.57
2018-06-03T10:41:29.006Z,10.93
2018-06-03T10:43:59.085Z,11.87
2018-06-03T10:46:31.588Z,10.03
2018-06-03T10:49:01.205Z,9.83
2018-06-03T10:51:30.505Z,9.60
2018-06-03T10:54:00.462Z,8.97
2018-06-03T10:56:31.295Z,8.10
2018-06-03T10:59:00.948Z,9.87
2018-06-03T11:01:30.334Z,10.00
2018-06-03T11:03:59.778Z,10.10
2018-06-03T11:06:29.391Z,10.03
2018-06-03T11:08:58.966Z,9.77
2018-06-03T11:11:28.296Z,9.57
2018-06-03T11:13:57.817Z,9.80
2018-06-03T11:16:27.572Z,10.40
2018-06-03T11:18:56.988Z,10.47
2018-06-03T11:21:26.586Z,9.00
2018-06-03T11:23:56.895Z,9.33
2018-06-03T11:26:26.607Z,9.70
2018-06-03T11:28:56.191Z,8.07
2018-06-03T11:31:25.698Z,8.90
2018-06-03T11:33:55.411Z,8.13
2018-06-03T11:36:24.995Z,7.90
2018-06-03T11:38:54.341Z,8.10
2018-06-03T11:41:24.027Z,9.30
2018-06-03T11:43:53.711Z,6.40
2018-06-03T11:46:23.431Z,5.60
2018-06-03T11:48:53.044Z,5.37
2018-06-03T11:51:22.592Z,5.20
2018-06-03T11:53:53.331Z,5.22
2018-06-03T11:56:23.137Z,7.75
2018-06-03T11:58:53.713Z,6.67
2018-06-03T12:01:23.589Z,6.07
2018-06-03T12:03:53.841Z,7.60
2018-06-03T12:06:23.651Z,6.83
2018-06-03T12:08:53.499Z,6.97
2018-06-03T12:11:24.262Z,6.60
2018-06-03T12:13:53.769Z,6.17
2018-06-03T12:16:23.630Z,5.87
2018-06-03T12:18:52.897Z,4.80
2018-06-03T12:21:22.572Z,5.20
2018-06-03T12:23:52.115Z,4.20
2018-06-03T12:26:22.644Z,3.63
2018-06-03T12:28:52.397Z,3.70
2018-06-03T12:31:22.335Z,3.90
2018-06-03T12:33:51.928Z,4.72
2018-06-03T12:36:21.737Z,4.20
2018-06-03T12:38:51.208Z,3.60
2018-06-03T12:41:21.384Z,4.08
2018-06-03T12:43:50.889Z,3.72
2018-06-03T12:46:20.368Z,4.22
2018-06-03T12:48:49.809Z,4.47
2018-06-03T12:51:19.236Z,4.90
2018-06-03T12:53:48.688Z,5.20
2018-06-03T12:56:18.499Z,5.10
2018-06-03T12:58:48.664Z,7.03
2018-06-03T13:01:19.066Z,9.27
2018-06-03T13:03:49.241Z,8.33
2018-06-03T13:06:19.312Z,9.50
2018-06-03T13:08:50.005Z,8.87
2018-06-03T13:11:19.466Z,8.67
2018-06-03T13:13:49.264Z,8.40
2018-06-03T13:16:18.808Z,7.87
2018-06-03T13:18:48.569Z,7.83
2018-06-03T13:21:18.892Z,6.80
2018-06-03T13:23:48.956Z,7.77
2018-06-03T13:26:19.691Z,6.77
2018-06-03T13:28:49.188Z,6.37
2018-06-03T13:31:18.348Z,6.10
2018-06-03T13:33:48.648Z,6.10
2018-06-03T13:36:18.296Z,6.03
2018-06-03T13:38:48.527Z,6.60
2018-06-03T13:41:18.239Z,6.33
2018-06-03T13:43:47.730Z,5.47
2018-06-03T13:46:17.153Z,4.80
2018-06-03T13:48:47.789Z,5.47
2018-06-03T13:51:17.343Z,5.60
2018-06-03T13:53:46.810Z,5.10
2018-06-03T13:56:16.863Z,6.17
2018-06-03T13:58:46.621Z,6.07
2018-06-03T14:01:16.402Z,5.93
2018-06-03T14:03:46.889Z,6.30
2018-06-03T14:06:16.785Z,6.20
2018-06-03T14:08:47.565Z,4.83
2018-06-03T14:11:17.340Z,4.60
2018-06-03T14:13:46.587Z,4.20
2018-06-03T14:16:16.915Z,4.80
2018-06-03T14:18:46.647Z,4.47
2018-06-03T14:21:16.561Z,5.50
2018-06-03T14:23:45.949Z,6.10
2018-06-03T14:26:15.870Z,8.13
2018-06-03T14:28:45.622Z,7.00
2018-06-03T14:31:15.082Z,9.30
2018-06-03T14:33:44.783Z,8.20
2018-06-03T14:36:14.754Z,7.57
2018-06-03T14:38:44.635Z,8.53
2018-06-03T14:41:14.312Z,8.77
2018-06-03T14:43:43.851Z,8.13
2018-06-03T14:46:13.948Z,8.67
2018-06-03T14:48:44.115Z,9.37
2018-06-03T14:51:16.324Z,8.50
2018-06-03T14:53:47.516Z,8.20
2018-06-03T14:56:16.827Z,7.37
2018-06-03T14:58:46.956Z,8.20
2018-06-03T15:01:16.915Z,7.03
2018-06-03T15:03:46.665Z,7.10
2018-06-03T15:06:16.020Z,7.60
2018-06-03T15:08:45.427Z,7.37
2018-06-03T15:11:15.053Z,6.57
2018-06-03T15:13:44.442Z,7.77
2018-06-03T15:16:14.681Z,7.83
2018-06-03T15:18:44.329Z,6.10
2018-06-03T15:21:13.545Z,5.43
2018-06-03T15:23:44.257Z,6.17
2018-06-03T15:26:13.675Z,5.90
2018-06-03T15:28:42.917Z,7.00
2018-06-03T15:31:12.296Z,6.50
2018-06-03T15:33:41.776Z,6.20
2018-06-03T15:36:11.877Z,6.30
2018-06-03T15:38:41.657Z,6.80
2018-06-03T15:41:11.265Z,6.13
2018-06-03T15:43:40.711Z,6.30
2018-06-03T15:46:11.306Z,5.60
2018-06-03T15:48:41.284Z,5.00
2018-06-03T15:51:10.994Z,6.40
2018-06-03T15:53:42.826Z,5.97
2018-06-03T15:56:12.340Z,5.47
2018-06-03T15:58:41.706Z,5.10
2018-06-03T16:01:11.317Z,5.77
2018-06-03T16:03:41.117Z,5.00
2018-06-03T16:06:10.665Z,5.13
2018-06-03T16:08:40.595Z,5.37
2018-06-03T16:11:09.897Z,6.10
2018-06-03T16:13:40.140Z,5.50
2018-06-03T16:16:10.650Z,5.40
2018-06-03T16:18:41.272Z,6.00
2018-06-03T16:21:10.973Z,6.70
2018-06-03T16:23:40.863Z,6.10
2018-06-03T16:26:10.192Z,6.00
2018-06-03T16:28:39.970Z,5.13
2018-06-03T16:31:09.500Z,5.93
2018-06-03T16:33:38.953Z,5.20
2018-06-03T16:36:08.425Z,5.60
2018-06-03T16:38:38.434Z,6.23
2018-06-03T16:41:07.840Z,6.50
2018-06-03T16:43:37.690Z,5.50
2018-06-03T16:46:07.524Z,6.17
2018-06-03T16:48:37.270Z,6.20
2018-06-03T16:51:06.903Z,6.73
2018-06-03T16:53:36.636Z,7.70
2018-06-03T16:56:06.459Z,6.13
2018-06-03T16:58:36.709Z,6.90
2018-06-03T17:01:06.983Z,6.40
2018-06-03T17:03:36.578Z,6.70
2018-06-03T17:06:05.994Z,7.23
2018-06-03T17:08:35.548Z,5.93
2018-06-03T17:11:04.911Z,5.53
2018-06-03T17:13:34.323Z,5.57
2018-06-03T17:16:03.548Z,6.40
2018-06-03T17:18:32.746Z,5.97
2018-06-03T17:21:03.424Z,7.07
2018-06-03T17:23:32.954Z,7.10
2018-06-03T17:26:02.662Z,8.37
2018-06-03T17:28:31.977Z,8.20
2018-06-03T17:31:02.573Z,7.80
2018-06-03T17:33:32.591Z,9.83
2018-06-03T17:36:03.009Z,10.37
2018-06-03T17:38:34.093Z,11.87
2018-06-03T17:41:06.672Z,11.27
2018-06-03T17:43:36.253Z,11.37
2018-06-03T17:46:05.999Z,9.00
2018-06-03T17:48:36.067Z,8.57
2018-06-03T17:51:05.271Z,11.27
2018-06-03T17:53:35.335Z,12.30
2018-06-03T17:56:04.775Z,13.50
2018-06-03T17:58:35.001Z,14.10
2018-06-03T18:01:04.778Z,14.57
2018-06-03T18:03:34.305Z,13.03
2018-06-03T18:06:05.368Z,11.90
2018-06-03T18:08:36.085Z,10.73
2018-06-03T18:11:08.576Z,12.57
2018-06-03T18:13:38.770Z,11.73
2018-06-03T18:16:08.617Z,11.80
2018-06-03T18:18:39.629Z,12.90
2018-06-03T18:21:10.659Z,12.77
2018-06-03T18:23:40.196Z,13.03
2018-06-03T18:26:10.760Z,14.57
2018-06-03T18:28:41.274Z,13.90
2018-06-03T18:31:11.543Z,13.77
2018-06-03T18:33:40.817Z,14.93
2018-06-03T18:36:11.336Z,15.30
2018-06-03T18:38:40.901Z,15.40
2018-06-03T18:41:10.381Z,15.70
2018-06-03T18:43:41.729Z,15.33
2018-06-03T18:46:11.520Z,16.77
2018-06-03T18:48:44.236Z,16.47
2018-06-03T18:51:15.034Z,17.77
2018-06-03T18:53:44.729Z,18.00
2018-06-03T18:56:14.449Z,18.27
2018-06-03T18:58:43.921Z,18.87
2018-06-03T19:01:15.096Z,19.10
2018-06-03T19:03:44.670Z,18.53
2018-06-03T19:06:15.142Z,19.30
2018-06-03T19:08:45.054Z,19.57
2018-06-03T19:11:14.505Z,19.00
2018-06-03T19:13:45.992Z,18.70
2018-06-03T19:16:15.871Z,18.07
2018-06-03T19:18:45.850Z,17.80
2018-06-03T19:21:15.585Z,16.47
2018-06-03T19:23:46.193Z,17.70
2018-06-03T19:26:16.055Z,17.40
2018-06-03T19:28:46.177Z,18.77
2018-06-03T19:31:15.188Z,18.23
2018-06-03T19:33:45.530Z,18.97
2018-06-03T19:36:15.773Z,19.03
2018-06-03T19:38:46.926Z,18.60
2018-06-03T19:41:17.648Z,19.60
2018-06-03T19:43:47.769Z,19.27
2018-06-03T19:46:17.428Z,19.63
2018-06-03T19:48:48.652Z,19.57
2018-06-03T19:51:18.363Z,19.33
2018-06-03T19:53:48.232Z,20.97
2018-06-03T19:56:18.892Z,20.00
2018-06-03T19:58:49.089Z,19.30
2018-06-03T20:01:18.711Z,20.03
2018-06-03T20:03:48.886Z,20.57
2018-06-03T20:06:19.285Z,19.60
2018-06-03T20:08:49.727Z,19.17
2018-06-03T20:11:19.982Z,20.00
2018-06-03T20:13:49.172Z,21.27
2018-06-03T20:16:20.393Z,19.70
2018-06-03T20:18:50.817Z,19.73
2018-06-03T20:21:20.536Z,20.20
2018-06-03T20:23:50.015Z,19.83
2018-06-03T20:26:19.974Z,21.27
2018-06-03T20:28:49.244Z,20.80
2018-06-03T20:31:18.763Z,21.27
2018-06-03T20:33:49.124Z,21.90
2018-06-03T20:36:18.699Z,21.90
2018-06-03T20:38:48.268Z,21.37
2018-06-03T20:41:17.845Z,22.30
2018-06-03T20:43:47.299Z,21.47
2018-06-03T20:46:16.988Z,24.17
2018-06-03T20:48:46.480Z,22.13
2018-06-03T20:51:15.912Z,21.13
2018-06-03T20:53:45.640Z,21.53
2018-06-03T20:56:16.096Z,21.70
2018-06-03T20:58:46.950Z,22.20
2018-06-03T21:01:16.653Z,21.87
2018-06-03T21:03:46.284Z,22.50
2018-06-03T21:06:15.962Z,22.20
2018-06-03T21:08:46.197Z,22.63
2018-06-03T21:11:15.657Z,23.70
2018-06-03T21:13:46.616Z,23.07
2018-06-03T21:16:16.577Z,22.30
2018-06-03T21:18:47.075Z,23.40
2018-06-03T21:21:17.225Z,22.83
2018-06-03T21:23:46.845Z,24.90
2018-06-03T21:26:17.833Z,26.43
2018-06-03T21:28:50.687Z,26.70
2018-06-03T21:31:20.399Z,26.77
2018-06-03T21:33:49.912Z,27.45
2018-06-03T21:36:19.700Z,28.37
2018-06-03T21:38:49.195Z,27.47
2018-06-03T21:41:18.598Z,28.60
2018-06-03T21:43:48.064Z,29.80
2018-06-03T21:46:18.501Z,27.47
2018-06-03T21:48:47.925Z,28.00
2018-06-03T21:51:18.441Z,29.60
2018-06-03T21:53:48.311Z,30.37
2018-06-03T21:56:20.351Z,32.03
2018-06-03T21:58:50.659Z,30.43
2018-06-03T22:01:20.088Z,31.03
2018-06-03T22:03:50.220Z,32.57
2018-06-03T22:06:19.758Z,32.67
2018-06-03T22:08:49.960Z,32.90
2018-06-03T22:11:19.406Z,32.67
2018-06-03T22:13:49.411Z,33.60
2018-06-03T22:16:19.764Z,32.97
2018-06-03T22:18:50.240Z,33.70
2018-06-03T22:21:19.925Z,34.10
2018-06-03T22:23:49.424Z,34.80
2018-06-03T22:26:19.710Z,36.20
2018-06-03T22:28:48.779Z,37.80
2018-06-03T22:31:18.454Z,38.53
2018-06-03T22:33:48.595Z,39.93
2018-06-03T22:36:18.818Z,40.53
2018-06-03T22:38:48.190Z,41.63
2018-06-03T22:41:19.054Z,42.20
2018-06-03T22:43:48.615Z,43.27
2018-06-03T22:46:18.335Z,43.40
2018-06-03T22:48:48.016Z,47.13
2018-06-03T22:51:18.499Z,46.67
2018-06-03T22:53:47.958Z,47.63
2018-06-03T22:56:18.140Z,46.90
2018-06-03T22:58:48.197Z,48.53
2018-06-03T23:01:17.717Z,48.37
2018-06-03T23:03:47.372Z,47.80
2018-06-03T23:06:17.051Z,47.30
2018-06-03T23:08:46.790Z,49.23
2018-06-03T23:11:16.750Z,48.13
2018-06-03T23:13:46.563Z,47.53
2018-06-03T23:16:16.194Z,47.27
2018-06-03T23:18:45.537Z,49.53
2018-06-03T23:21:15.152Z,50.00
2018-06-03T23:23:44.667Z,49.07
2018-06-03T23:26:13.987Z,47.17
2018-06-03T23:28:43.459Z,48.90
2018-06-03T23:31:12.946Z,48.17
2018-06-03T23:33:43.508Z,47.43
2018-06-03T23:36:13.008Z,50.53
2018-06-03T23:38:43.035Z,47.97
2018-06-03T23:41:12.152Z,47.87
2018-06-03T23:43:42.351Z,47.20
2018-06-03T23:46:11.943Z,49.00
2018-06-03T23:48:41.534Z,49.73
2018-06-03T23:51:11.848Z,46.23
2018-06-03T23:53:41.247Z,51.27
2018-06-03T23:56:11.641Z,50.60
2018-06-03T23:58:42.173Z,51.20
